sensor_id;sensor_type;location;lat;lon;timestamp;P1;durP1;ratioP1;P2;durP2;ratioP2
75005;SDS011;63553;51.814;4.600;2024-02-23T00:01:30;1.50;;;0.50;;
75005;SDS011;63553;51.814;4.600;2024-02-23T00:03:56;0.75;;;0.47;;
75005;SDS011;63553;51.814;4.600;2024-02-23T00:06:21;2.30;;;0.73;;
75005;SDS011;63553;51.814;4.600;2024-02-23T00:08:48;1.05;;;0.55;;
75005;SDS011;63553;51.814;4.600;2024-02-23T00:11:13;0.87;;;0.57;;
75005;SDS011;63553;51.814;4.600;2024-02-23T00:13:39;1.27;;;0.50;;
75005;SDS011;63553;51.814;4.600;2024-02-23T00:16:04;1.37;;;0.77;;
75005;SDS011;63553;51.814;4.600;2024-02-23T00:18:30;1.65;;;0.50;;
75005;SDS011;63553;51.814;4.600;2024-02-23T00:20:55;0.80;;;0.60;;
75005;SDS011;63553;51.814;4.600;2024-02-23T00:23:21;0.57;;;0.50;;
75005;SDS011;63553;51.814;4.600;2024-02-23T00:25:46;1.20;;;0.45;;
75005;SDS011;63553;51.814;4.600;2024-02-23T00:28:12;0.83;;;0.60;;
75005;SDS011;63553;51.814;4.600;2024-02-23T00:30:37;1.10;;;0.70;;
75005;SDS011;63553;51.814;4.600;2024-02-23T00:33:02;1.70;;;0.57;;
75005;SDS011;63553;51.814;4.600;2024-02-23T00:35:28;1.48;;;0.73;;
75005;SDS011;63553;51.814;4.600;2024-02-23T00:37:53;0.70;;;0.60;;
75005;SDS011;63553;51.814;4.600;2024-02-23T00:40:19;0.70;;;0.47;;
75005;SDS011;63553;51.814;4.600;2024-02-23T00:42:44;1.10;;;1.00;;
75005;SDS011;63553;51.814;4.600;2024-02-23T00:45:09;1.15;;;0.50;;
75005;SDS011;63553;51.814;4.600;2024-02-23T00:47:34;0.97;;;0.60;;
75005;SDS011;63553;51.814;4.600;2024-02-23T00:50:03;2.00;;;0.80;;
75005;SDS011;63553;51.814;4.600;2024-02-23T00:52:29;1.10;;;0.65;;
75005;SDS011;63553;51.814;4.600;2024-02-23T00:54:54;1.00;;;0.47;;
75005;SDS011;63553;51.814;4.600;2024-02-23T00:57:19;0.50;;;0.40;;
75005;SDS011;63553;51.814;4.600;2024-02-23T00:59:52;1.70;;;0.52;;
75005;SDS011;63553;51.814;4.600;2024-02-23T01:02:17;1.73;;;0.80;;
75005;SDS011;63553;51.814;4.600;2024-02-23T01:04:42;1.30;;;0.70;;
75005;SDS011;63553;51.814;4.600;2024-02-23T01:07:08;1.08;;;0.55;;
75005;SDS011;63553;51.814;4.600;2024-02-23T01:09:33;1.43;;;0.60;;
75005;SDS011;63553;51.814;4.600;2024-02-23T01:11:58;1.83;;;0.90;;
75005;SDS011;63553;51.814;4.600;2024-02-23T01:14:24;1.58;;;0.75;;
75005;SDS011;63553;51.814;4.600;2024-02-23T01:16:50;1.63;;;0.63;;
75005;SDS011;63553;51.814;4.600;2024-02-23T01:19:15;0.67;;;0.53;;
75005;SDS011;63553;51.814;4.600;2024-02-23T01:21:41;1.23;;;0.70;;
75005;SDS011;63553;51.814;4.600;2024-02-23T01:24:06;1.83;;;0.80;;
75005;SDS011;63553;51.814;4.600;2024-02-23T01:26:31;1.40;;;0.70;;
75005;SDS011;63553;51.814;4.600;2024-02-23T01:28:57;1.60;;;0.77;;
75005;SDS011;63553;51.814;4.600;2024-02-23T01:31:22;1.13;;;0.63;;
75005;SDS011;63553;51.814;4.600;2024-02-23T01:33:47;1.77;;;0.63;;
75005;SDS011;63553;51.814;4.600;2024-02-23T01:36:14;1.55;;;0.73;;
75005;SDS011;63553;51.814;4.600;2024-02-23T01:38:39;1.77;;;1.03;;
75005;SDS011;63553;51.814;4.600;2024-02-23T01:41:07;2.55;;;0.77;;
75005;SDS011;63553;51.814;4.600;2024-02-23T01:43:33;0.70;;;0.35;;
75005;SDS011;63553;51.814;4.600;2024-02-23T01:45:58;2.60;;;1.00;;
75005;SDS011;63553;51.814;4.600;2024-02-23T01:48:24;0.63;;;0.60;;
75005;SDS011;63553;51.814;4.600;2024-02-23T01:50:50;0.90;;;0.47;;
75005;SDS011;63553;51.814;4.600;2024-02-23T01:53:15;1.67;;;0.68;;
75005;SDS011;63553;51.814;4.600;2024-02-23T01:55:44;1.60;;;0.80;;
75005;SDS011;63553;51.814;4.600;2024-02-23T01:58:10;0.73;;;0.50;;
75005;SDS011;63553;51.814;4.600;2024-02-23T02:00:36;0.88;;;0.68;;
75005;SDS011;63553;51.814;4.600;2024-02-23T02:03:02;1.13;;;0.80;;
75005;SDS011;63553;51.814;4.600;2024-02-23T02:05:28;1.33;;;0.70;;
75005;SDS011;63553;51.814;4.600;2024-02-23T02:07:53;2.40;;;0.73;;
75005;SDS011;63553;51.814;4.600;2024-02-23T02:10:23;1.00;;;0.80;;
75005;SDS011;63553;51.814;4.600;2024-02-23T02:12:49;2.30;;;0.70;;
75005;SDS011;63553;51.814;4.600;2024-02-23T02:15:14;2.40;;;1.17;;
75005;SDS011;63553;51.814;4.600;2024-02-23T02:17:40;1.40;;;0.60;;
75005;SDS011;63553;51.814;4.600;2024-02-23T02:20:05;1.05;;;0.80;;
75005;SDS011;63553;51.814;4.600;2024-02-23T02:25:01;1.17;;;0.50;;
75005;SDS011;63553;51.814;4.600;2024-02-23T02:27:26;2.05;;;0.68;;
75005;SDS011;63553;51.814;4.600;2024-02-23T02:29:51;1.13;;;0.50;;
75005;SDS011;63553;51.814;4.600;2024-02-23T02:32:17;1.00;;;0.40;;
75005;SDS011;63553;51.814;4.600;2024-02-23T02:34:43;3.08;;;0.93;;
75005;SDS011;63553;51.814;4.600;2024-02-23T02:37:08;1.08;;;0.60;;
75005;SDS011;63553;51.814;4.600;2024-02-23T02:39:33;1.90;;;0.80;;
75005;SDS011;63553;51.814;4.600;2024-02-23T02:41:59;0.68;;;0.47;;
75005;SDS011;63553;51.814;4.600;2024-02-23T02:44:24;1.42;;;0.77;;
75005;SDS011;63553;51.814;4.600;2024-02-23T02:46:51;2.30;;;0.95;;
75005;SDS011;63553;51.814;4.600;2024-02-23T02:49:17;1.02;;;0.70;;
75005;SDS011;63553;51.814;4.600;2024-02-23T02:51:42;1.27;;;0.60;;
75005;SDS011;63553;51.814;4.600;2024-02-23T02:54:07;2.45;;;0.95;;
75005;SDS011;63553;51.814;4.600;2024-02-23T02:56:33;1.50;;;0.68;;
75005;SDS011;63553;51.814;4.600;2024-02-23T02:58:58;2.17;;;0.60;;
75005;SDS011;63553;51.814;4.600;2024-02-23T03:01:24;1.83;;;0.70;;
75005;SDS011;63553;51.814;4.600;2024-02-23T03:03:49;1.27;;;0.63;;
75005;SDS011;63553;51.814;4.600;2024-02-23T03:06:14;2.83;;;0.70;;
75005;SDS011;63553;51.814;4.600;2024-02-23T03:08:41;1.00;;;0.88;;
75005;SDS011;63553;51.814;4.600;2024-02-23T03:11:07;0.50;;;0.50;;
75005;SDS011;63553;51.814;4.600;2024-02-23T03:13:33;2.03;;;0.80;;
75005;SDS011;63553;51.814;4.600;2024-02-23T03:15:58;0.90;;;0.70;;
75005;SDS011;63553;51.814;4.600;2024-02-23T03:18:23;1.48;;;1.05;;
75005;SDS011;63553;51.814;4.600;2024-02-23T03:20:49;1.77;;;0.70;;
75005;SDS011;63553;51.814;4.600;2024-02-23T03:23:14;0.70;;;0.70;;
75005;SDS011;63553;51.814;4.600;2024-02-23T03:25:39;2.38;;;0.75;;
75005;SDS011;63553;51.814;4.600;2024-02-23T03:28:05;0.50;;;0.47;;
75005;SDS011;63553;51.814;4.600;2024-02-23T03:30:30;0.80;;;0.70;;
75005;SDS011;63553;51.814;4.600;2024-02-23T03:32:55;1.23;;;0.60;;
75005;SDS011;63553;51.814;4.600;2024-02-23T03:35:21;1.03;;;0.63;;
75005;SDS011;63553;51.814;4.600;2024-02-23T03:37:46;5.43;;;1.07;;
75005;SDS011;63553;51.814;4.600;2024-02-23T03:40:11;2.00;;;0.80;;
75005;SDS011;63553;51.814;4.600;2024-02-23T03:42:37;1.38;;;0.50;;
75005;SDS011;63553;51.814;4.600;2024-02-23T03:45:04;0.85;;;0.80;;
75005;SDS011;63553;51.814;4.600;2024-02-23T03:47:30;2.40;;;0.73;;
75005;SDS011;63553;51.814;4.600;2024-02-23T03:49:55;1.47;;;0.83;;
75005;SDS011;63553;51.814;4.600;2024-02-23T03:52:20;2.07;;;0.93;;
75005;SDS011;63553;51.814;4.600;2024-02-23T03:54:46;0.50;;;0.50;;
75005;SDS011;63553;51.814;4.600;2024-02-23T03:57:11;0.83;;;0.50;;
75005;SDS011;63553;51.814;4.600;2024-02-23T03:59:36;1.07;;;0.80;;
75005;SDS011;63553;51.814;4.600;2024-02-23T04:02:06;0.85;;;0.70;;
75005;SDS011;63553;51.814;4.600;2024-02-23T04:04:31;0.50;;;0.50;;
75005;SDS011;63553;51.814;4.600;2024-02-23T04:06:56;1.17;;;0.70;;
75005;SDS011;63553;51.814;4.600;2024-02-23T04:09:22;1.40;;;0.70;;
75005;SDS011;63553;51.814;4.600;2024-02-23T04:11:48;3.35;;;0.77;;
75005;SDS011;63553;51.814;4.600;2024-02-23T04:14:13;1.10;;;0.52;;
75005;SDS011;63553;51.814;4.600;2024-02-23T04:16:39;1.43;;;0.60;;
75005;SDS011;63553;51.814;4.600;2024-02-23T04:19:04;0.93;;;0.80;;
75005;SDS011;63553;51.814;4.600;2024-02-23T04:21:29;2.37;;;0.60;;
75005;SDS011;63553;51.814;4.600;2024-02-23T04:23:55;0.50;;;0.50;;
75005;SDS011;63553;51.814;4.600;2024-02-23T04:26:20;0.50;;;0.50;;
75005;SDS011;63553;51.814;4.600;2024-02-23T04:28:45;1.80;;;0.60;;
75005;SDS011;63553;51.814;4.600;2024-02-23T04:31:11;0.52;;;0.52;;
75005;SDS011;63553;51.814;4.600;2024-02-23T04:33:36;0.73;;;0.55;;
75005;SDS011;63553;51.814;4.600;2024-02-23T04:36:02;1.33;;;0.70;;
75005;SDS011;63553;51.814;4.600;2024-02-23T04:38:29;1.55;;;0.75;;
75005;SDS011;63553;51.814;4.600;2024-02-23T04:40:54;0.90;;;0.73;;
75005;SDS011;63553;51.814;4.600;2024-02-23T04:43:21;1.02;;;0.40;;
75005;SDS011;63553;51.814;4.600;2024-02-23T04:45:47;2.10;;;0.60;;
75005;SDS011;63553;51.814;4.600;2024-02-23T04:48:12;1.10;;;0.50;;
75005;SDS011;63553;51.814;4.600;2024-02-23T04:50:37;1.40;;;0.60;;
75005;SDS011;63553;51.814;4.600;2024-02-23T04:53:03;2.70;;;0.85;;
75005;SDS011;63553;51.814;4.600;2024-02-23T04:55:28;1.45;;;0.60;;
75005;SDS011;63553;51.814;4.600;2024-02-23T04:57:53;2.30;;;0.77;;
75005;SDS011;63553;51.814;4.600;2024-02-23T05:00:19;0.97;;;0.80;;
75005;SDS011;63553;51.814;4.600;2024-02-23T05:02:45;0.80;;;0.80;;
75005;SDS011;63553;51.814;4.600;2024-02-23T05:05:11;1.92;;;0.90;;
75005;SDS011;63553;51.814;4.600;2024-02-23T05:07:37;0.80;;;0.77;;
75005;SDS011;63553;51.814;4.600;2024-02-23T05:10:03;1.40;;;0.65;;
75005;SDS011;63553;51.814;4.600;2024-02-23T05:12:29;0.68;;;0.60;;
75005;SDS011;63553;51.814;4.600;2024-02-23T05:14:54;0.83;;;0.70;;
75005;SDS011;63553;51.814;4.600;2024-02-23T05:17:19;1.17;;;0.70;;
75005;SDS011;63553;51.814;4.600;2024-02-23T05:19:45;0.37;;;0.33;;
75005;SDS011;63553;51.814;4.600;2024-02-23T05:22:11;1.50;;;0.75;;
75005;SDS011;63553;51.814;4.600;2024-02-23T05:24:36;4.90;;;0.73;;
75005;SDS011;63553;51.814;4.600;2024-02-23T05:27:02;5.73;;;0.90;;
75005;SDS011;63553;51.814;4.600;2024-02-23T05:29:27;2.45;;;0.80;;
75005;SDS011;63553;51.814;4.600;2024-02-23T05:31:53;7.43;;;0.95;;
75005;SDS011;63553;51.814;4.600;2024-02-23T05:34:18;2.67;;;0.80;;
75005;SDS011;63553;51.814;4.600;2024-02-23T05:36:44;1.65;;;0.77;;
75005;SDS011;63553;51.814;4.600;2024-02-23T05:39:11;4.75;;;1.38;;
75005;SDS011;63553;51.814;4.600;2024-02-23T05:41:37;4.40;;;0.70;;
75005;SDS011;63553;51.814;4.600;2024-02-23T05:44:03;0.88;;;0.80;;
75005;SDS011;63553;51.814;4.600;2024-02-23T05:46:31;1.23;;;0.77;;
75005;SDS011;63553;51.814;4.600;2024-02-23T05:48:57;1.98;;;0.82;;
75005;SDS011;63553;51.814;4.600;2024-02-23T05:51:23;1.60;;;0.70;;
75005;SDS011;63553;51.814;4.600;2024-02-23T05:53:48;1.63;;;0.90;;
75005;SDS011;63553;51.814;4.600;2024-02-23T05:56:13;2.37;;;0.90;;
75005;SDS011;63553;51.814;4.600;2024-02-23T05:58:39;1.10;;;1.00;;
75005;SDS011;63553;51.814;4.600;2024-02-23T06:01:04;3.03;;;0.80;;
75005;SDS011;63553;51.814;4.600;2024-02-23T06:03:30;1.92;;;0.98;;
75005;SDS011;63553;51.814;4.600;2024-02-23T06:05:55;2.78;;;1.08;;
75005;SDS011;63553;51.814;4.600;2024-02-23T06:08:21;0.70;;;0.70;;
75005;SDS011;63553;51.814;4.600;2024-02-23T06:10:46;1.93;;;0.77;;
75005;SDS011;63553;51.814;4.600;2024-02-23T06:13:11;1.20;;;0.60;;
75005;SDS011;63553;51.814;4.600;2024-02-23T06:15:36;1.67;;;0.70;;
75005;SDS011;63553;51.814;4.600;2024-02-23T06:18:03;1.98;;;0.95;;
75005;SDS011;63553;51.814;4.600;2024-02-23T06:20:29;1.60;;;0.80;;
75005;SDS011;63553;51.814;4.600;2024-02-23T06:22:54;2.17;;;1.10;;
75005;SDS011;63553;51.814;4.600;2024-02-23T06:25:20;1.00;;;1.00;;
75005;SDS011;63553;51.814;4.600;2024-02-23T06:27:46;1.53;;;0.90;;
75005;SDS011;63553;51.814;4.600;2024-02-23T06:30:11;1.13;;;1.00;;
75005;SDS011;63553;51.814;4.600;2024-02-23T06:32:39;2.70;;;0.90;;
75005;SDS011;63553;51.814;4.600;2024-02-23T06:35:04;1.42;;;0.70;;
75005;SDS011;63553;51.814;4.600;2024-02-23T06:37:31;3.28;;;1.20;;
75005;SDS011;63553;51.814;4.600;2024-02-23T06:39:57;2.88;;;1.10;;
75005;SDS011;63553;51.814;4.600;2024-02-23T06:42:23;1.70;;;0.82;;
75005;SDS011;63553;51.814;4.600;2024-02-23T06:44:48;0.80;;;0.80;;
75005;SDS011;63553;51.814;4.600;2024-02-23T06:47:14;0.85;;;0.70;;
75005;SDS011;63553;51.814;4.600;2024-02-23T06:49:43;0.93;;;0.88;;
75005;SDS011;63553;51.814;4.600;2024-02-23T06:52:09;0.80;;;0.80;;
75005;SDS011;63553;51.814;4.600;2024-02-23T06:54:35;0.98;;;0.65;;
75005;SDS011;63553;51.814;4.600;2024-02-23T06:57:00;0.70;;;0.70;;
75005;SDS011;63553;51.814;4.600;2024-02-23T06:59:26;1.65;;;1.20;;
75005;SDS011;63553;51.814;4.600;2024-02-23T07:01:51;2.57;;;0.80;;
75005;SDS011;63553;51.814;4.600;2024-02-23T07:04:17;2.72;;;1.10;;
75005;SDS011;63553;51.814;4.600;2024-02-23T07:06:43;0.65;;;0.65;;
75005;SDS011;63553;51.814;4.600;2024-02-23T07:09:08;1.48;;;0.68;;
75005;SDS011;63553;51.814;4.600;2024-02-23T07:11:36;2.78;;;0.85;;
75005;SDS011;63553;51.814;4.600;2024-02-23T07:14:02;1.60;;;0.88;;
75005;SDS011;63553;51.814;4.600;2024-02-23T07:16:27;1.57;;;0.70;;
75005;SDS011;63553;51.814;4.600;2024-02-23T07:18:52;1.63;;;1.10;;
75005;SDS011;63553;51.814;4.600;2024-02-23T07:21:18;0.88;;;0.70;;
75005;SDS011;63553;51.814;4.600;2024-02-23T07:23:43;1.23;;;0.80;;
75005;SDS011;63553;51.814;4.600;2024-02-23T07:26:09;4.63;;;0.98;;
75005;SDS011;63553;51.814;4.600;2024-02-23T07:28:34;4.27;;;1.20;;
75005;SDS011;63553;51.814;4.600;2024-02-23T07:30:59;2.33;;;0.60;;
75005;SDS011;63553;51.814;4.600;2024-02-23T07:33:25;0.77;;;0.70;;
75005;SDS011;63553;51.814;4.600;2024-02-23T07:35:50;2.00;;;1.23;;
75005;SDS011;63553;51.814;4.600;2024-02-23T07:38:15;4.40;;;1.38;;
75005;SDS011;63553;51.814;4.600;2024-02-23T07:40:43;2.75;;;1.63;;
75005;SDS011;63553;51.814;4.600;2024-02-23T07:43:09;3.63;;;1.55;;
75005;SDS011;63553;51.814;4.600;2024-02-23T07:45:36;3.72;;;1.42;;
75005;SDS011;63553;51.814;4.600;2024-02-23T07:48:01;2.42;;;1.30;;
75005;SDS011;63553;51.814;4.600;2024-02-23T07:50:27;2.97;;;1.45;;
75005;SDS011;63553;51.814;4.600;2024-02-23T07:52:52;9.82;;;1.65;;
75005;SDS011;63553;51.814;4.600;2024-02-23T07:55:18;6.38;;;1.70;;
75005;SDS011;63553;51.814;4.600;2024-02-23T07:57:43;2.23;;;1.33;;
75005;SDS011;63553;51.814;4.600;2024-02-23T08:00:09;6.83;;;1.60;;
75005;SDS011;63553;51.814;4.600;2024-02-23T08:02:34;5.10;;;1.27;;
75005;SDS011;63553;51.814;4.600;2024-02-23T08:05:00;5.03;;;1.50;;
75005;SDS011;63553;51.814;4.600;2024-02-23T08:07:28;4.45;;;1.40;;
75005;SDS011;63553;51.814;4.600;2024-02-23T08:09:55;4.78;;;1.35;;
75005;SDS011;63553;51.814;4.600;2024-02-23T08:12:21;4.60;;;1.45;;
75005;SDS011;63553;51.814;4.600;2024-02-23T08:14:46;5.93;;;1.87;;
75005;SDS011;63553;51.814;4.600;2024-02-23T08:17:14;7.50;;;2.20;;
75005;SDS011;63553;51.814;4.600;2024-02-23T08:19:39;3.10;;;1.30;;
75005;SDS011;63553;51.814;4.600;2024-02-23T08:22:04;1.87;;;1.27;;
75005;SDS011;63553;51.814;4.600;2024-02-23T08:24:30;4.03;;;1.48;;
75005;SDS011;63553;51.814;4.600;2024-02-23T08:26:55;3.07;;;1.00;;
75005;SDS011;63553;51.814;4.600;2024-02-23T08:29:20;3.83;;;1.17;;
75005;SDS011;63553;51.814;4.600;2024-02-23T08:31:46;5.75;;;1.38;;
75005;SDS011;63553;51.814;4.600;2024-02-23T08:34:11;2.40;;;1.00;;
75005;SDS011;63553;51.814;4.600;2024-02-23T08:36:37;2.38;;;0.90;;
75005;SDS011;63553;51.814;4.600;2024-02-23T08:39:02;5.80;;;1.00;;
75005;SDS011;63553;51.814;4.600;2024-02-23T08:41:28;0.73;;;0.70;;
75005;SDS011;63553;51.814;4.600;2024-02-23T08:43:53;2.50;;;0.80;;
75005;SDS011;63553;51.814;4.600;2024-02-23T08:46:20;3.97;;;0.95;;
75005;SDS011;63553;51.814;4.600;2024-02-23T08:48:46;2.13;;;1.00;;
75005;SDS011;63553;51.814;4.600;2024-02-23T08:51:12;1.15;;;0.70;;
75005;SDS011;63553;51.814;4.600;2024-02-23T08:53:37;1.30;;;0.70;;
75005;SDS011;63553;51.814;4.600;2024-02-23T08:56:03;2.43;;;0.77;;
75005;SDS011;63553;51.814;4.600;2024-02-23T08:58:29;2.35;;;1.10;;
75005;SDS011;63553;51.814;4.600;2024-02-23T09:00:54;3.72;;;0.70;;
75005;SDS011;63553;51.814;4.600;2024-02-23T09:03:20;2.60;;;1.00;;
75005;SDS011;63553;51.814;4.600;2024-02-23T09:05:46;0.52;;;0.43;;
75005;SDS011;63553;51.814;4.600;2024-02-23T09:08:13;0.98;;;0.95;;
75005;SDS011;63553;51.814;4.600;2024-02-23T09:10:39;1.48;;;0.63;;
75005;SDS011;63553;51.814;4.600;2024-02-23T09:13:04;2.40;;;0.95;;
75005;SDS011;63553;51.814;4.600;2024-02-23T09:15:31;1.67;;;1.00;;
75005;SDS011;63553;51.814;4.600;2024-02-23T09:17:56;2.20;;;0.80;;
75005;SDS011;63553;51.814;4.600;2024-02-23T09:20:22;1.95;;;0.90;;
75005;SDS011;63553;51.814;4.600;2024-02-23T09:22:48;1.00;;;0.73;;
75005;SDS011;63553;51.814;4.600;2024-02-23T09:25:14;1.30;;;0.80;;
75005;SDS011;63553;51.814;4.600;2024-02-23T09:27:39;0.73;;;0.68;;
75005;SDS011;63553;51.814;4.600;2024-02-23T09:30:09;0.88;;;0.70;;
75005;SDS011;63553;51.814;4.600;2024-02-23T09:32:36;1.83;;;0.52;;
75005;SDS011;63553;51.814;4.600;2024-02-23T09:35:01;0.82;;;0.57;;
75005;SDS011;63553;51.814;4.600;2024-02-23T09:37:28;1.00;;;0.70;;
75005;SDS011;63553;51.814;4.600;2024-02-23T09:39:53;1.05;;;0.80;;
75005;SDS011;63553;51.814;4.600;2024-02-23T09:42:19;1.05;;;0.95;;
75005;SDS011;63553;51.814;4.600;2024-02-23T09:44:50;1.98;;;0.70;;
75005;SDS011;63553;51.814;4.600;2024-02-23T09:47:23;1.45;;;0.65;;
75005;SDS011;63553;51.814;4.600;2024-02-23T09:49:49;0.75;;;0.65;;
75005;SDS011;63553;51.814;4.600;2024-02-23T09:52:16;0.65;;;0.50;;
75005;SDS011;63553;51.814;4.600;2024-02-23T09:54:44;2.20;;;0.68;;
75005;SDS011;63553;51.814;4.600;2024-02-23T09:57:10;1.67;;;0.70;;
75005;SDS011;63553;51.814;4.600;2024-02-23T09:59:36;0.90;;;0.75;;
75005;SDS011;63553;51.814;4.600;2024-02-23T10:02:14;1.70;;;0.60;;
75005;SDS011;63553;51.814;4.600;2024-02-23T10:04:40;0.70;;;0.70;;
75005;SDS011;63553;51.814;4.600;2024-02-23T10:07:08;0.88;;;0.73;;
75005;SDS011;63553;51.814;4.600;2024-02-23T10:09:34;0.85;;;0.50;;
75005;SDS011;63553;51.814;4.600;2024-02-23T10:12:00;2.03;;;0.77;;
75005;SDS011;63553;51.814;4.600;2024-02-23T10:14:29;1.23;;;0.82;;
75005;SDS011;63553;51.814;4.600;2024-02-23T10:16:54;1.00;;;0.90;;
75005;SDS011;63553;51.814;4.600;2024-02-23T10:19:20;2.17;;;1.13;;
75005;SDS011;63553;51.814;4.600;2024-02-23T10:21:46;1.15;;;0.77;;
75005;SDS011;63553;51.814;4.600;2024-02-23T10:24:12;1.10;;;0.55;;
75005;SDS011;63553;51.814;4.600;2024-02-23T10:26:38;1.27;;;0.75;;
75005;SDS011;63553;51.814;4.600;2024-02-23T10:29:03;1.10;;;1.00;;
75005;SDS011;63553;51.814;4.600;2024-02-23T10:31:30;1.85;;;0.70;;
75005;SDS011;63553;51.814;4.600;2024-02-23T10:34:01;0.70;;;0.60;;
75005;SDS011;63553;51.814;4.600;2024-02-23T10:36:34;4.43;;;0.90;;
75005;SDS011;63553;51.814;4.600;2024-02-23T10:39:01;1.15;;;0.70;;
75005;SDS011;63553;51.814;4.600;2024-02-23T10:41:29;3.22;;;0.70;;
75005;SDS011;63553;51.814;4.600;2024-02-23T10:43:59;2.78;;;0.90;;
75005;SDS011;63553;51.814;4.600;2024-02-23T10:46:25;4.22;;;0.95;;
75005;SDS011;63553;51.814;4.600;2024-02-23T10:48:52;0.47;;;0.47;;
75005;SDS011;63553;51.814;4.600;2024-02-23T10:51:19;0.82;;;0.70;;
75005;SDS011;63553;51.814;4.600;2024-02-23T10:53:46;1.30;;;0.57;;
75005;SDS011;63553;51.814;4.600;2024-02-23T10:56:13;1.35;;;0.60;;
75005;SDS011;63553;51.814;4.600;2024-02-23T10:58:38;0.77;;;0.60;;
75005;SDS011;63553;51.814;4.600;2024-02-23T11:01:05;0.93;;;0.60;;
75005;SDS011;63553;51.814;4.600;2024-02-23T11:03:34;1.35;;;0.68;;
75005;SDS011;63553;51.814;4.600;2024-02-23T11:06:00;0.50;;;0.50;;
75005;SDS011;63553;51.814;4.600;2024-02-23T11:08:29;0.93;;;0.60;;
75005;SDS011;63553;51.814;4.600;2024-02-23T11:10:55;2.83;;;0.73;;
75005;SDS011;63553;51.814;4.600;2024-02-23T11:13:29;1.20;;;0.80;;
75005;SDS011;63553;51.814;4.600;2024-02-23T11:16:01;0.73;;;0.55;;
75005;SDS011;63553;51.814;4.600;2024-02-23T11:18:29;0.68;;;0.60;;
75005;SDS011;63553;51.814;4.600;2024-02-23T11:21:04;1.20;;;0.73;;
75005;SDS011;63553;51.814;4.600;2024-02-23T11:26:29;1.33;;;0.90;;
75005;SDS011;63553;51.814;4.600;2024-02-23T11:28:55;2.90;;;0.82;;
75005;SDS011;63553;51.814;4.600;2024-02-23T11:31:21;0.77;;;0.77;;
75005;SDS011;63553;51.814;4.600;2024-02-23T11:33:49;1.02;;;0.77;;
75005;SDS011;63553;51.814;4.600;2024-02-23T11:36:22;0.73;;;0.70;;
75005;SDS011;63553;51.814;4.600;2024-02-23T11:38:49;2.25;;;0.80;;
75005;SDS011;63553;51.814;4.600;2024-02-23T11:41:18;0.85;;;0.60;;
75005;SDS011;63553;51.814;4.600;2024-02-23T11:43:43;2.17;;;0.75;;
75005;SDS011;63553;51.814;4.600;2024-02-23T11:46:09;0.60;;;0.60;;
75005;SDS011;63553;51.814;4.600;2024-02-23T11:48:34;1.60;;;0.90;;
75005;SDS011;63553;51.814;4.600;2024-02-23T11:51:00;0.70;;;0.70;;
75005;SDS011;63553;51.814;4.600;2024-02-23T11:53:25;1.75;;;0.82;;
75005;SDS011;63553;51.814;4.600;2024-02-23T11:55:52;1.52;;;0.68;;
75005;SDS011;63553;51.814;4.600;2024-02-23T11:58:17;1.15;;;0.65;;
75005;SDS011;63553;51.814;4.600;2024-02-23T12:00:43;1.75;;;0.60;;
75005;SDS011;63553;51.814;4.600;2024-02-23T12:03:08;0.82;;;0.80;;
75005;SDS011;63553;51.814;4.600;2024-02-23T12:05:35;0.70;;;0.70;;
75005;SDS011;63553;51.814;4.600;2024-02-23T12:08:00;2.78;;;0.80;;
75005;SDS011;63553;51.814;4.600;2024-02-23T12:10:26;1.27;;;0.70;;
75005;SDS011;63553;51.814;4.600;2024-02-23T12:12:52;3.25;;;0.82;;
75005;SDS011;63553;51.814;4.600;2024-02-23T12:15:18;2.47;;;0.80;;
75005;SDS011;63553;51.814;4.600;2024-02-23T12:17:48;0.90;;;0.85;;
75005;SDS011;63553;51.814;4.600;2024-02-23T12:20:14;1.60;;;0.80;;
75005;SDS011;63553;51.814;4.600;2024-02-23T12:22:42;1.10;;;0.70;;
75005;SDS011;63553;51.814;4.600;2024-02-23T12:25:08;1.48;;;0.77;;
75005;SDS011;63553;51.814;4.600;2024-02-23T12:27:33;1.30;;;0.60;;
75005;SDS011;63553;51.814;4.600;2024-02-23T12:29:58;1.33;;;1.02;;
75005;SDS011;63553;51.814;4.600;2024-02-23T12:32:24;1.88;;;0.88;;
75005;SDS011;63553;51.814;4.600;2024-02-23T12:34:49;1.08;;;0.75;;
75005;SDS011;63553;51.814;4.600;2024-02-23T12:37:15;1.20;;;0.80;;
75005;SDS011;63553;51.814;4.600;2024-02-23T12:39:44;1.98;;;0.82;;
75005;SDS011;63553;51.814;4.600;2024-02-23T12:42:09;1.15;;;0.95;;
75005;SDS011;63553;51.814;4.600;2024-02-23T12:44:35;2.75;;;1.10;;
75005;SDS011;63553;51.814;4.600;2024-02-23T12:47:00;8.32;;;1.95;;
75005;SDS011;63553;51.814;4.600;2024-02-23T12:49:26;14.57;;;3.00;;
75005;SDS011;63553;51.814;4.600;2024-02-23T12:51:51;10.60;;;2.50;;
75005;SDS011;63553;51.814;4.600;2024-02-23T12:54:16;8.65;;;2.00;;
75005;SDS011;63553;51.814;4.600;2024-02-23T12:56:42;8.80;;;1.83;;
75005;SDS011;63553;51.814;4.600;2024-02-23T12:59:07;12.18;;;2.58;;
75005;SDS011;63553;51.814;4.600;2024-02-23T13:01:34;13.85;;;3.10;;
75005;SDS011;63553;51.814;4.600;2024-02-23T13:04:04;21.35;;;4.40;;
75005;SDS011;63553;51.814;4.600;2024-02-23T13:06:37;17.60;;;2.80;;
75005;SDS011;63553;51.814;4.600;2024-02-23T13:09:03;14.75;;;2.67;;
75005;SDS011;63553;51.814;4.600;2024-02-23T13:11:29;11.18;;;3.05;;
75005;SDS011;63553;51.814;4.600;2024-02-23T13:13:56;9.45;;;2.10;;
75005;SDS011;63553;51.814;4.600;2024-02-23T13:16:21;6.80;;;2.03;;
75005;SDS011;63553;51.814;4.600;2024-02-23T13:18:46;6.03;;;2.23;;
75005;SDS011;63553;51.814;4.600;2024-02-23T13:21:12;3.15;;;1.70;;
75005;SDS011;63553;51.814;4.600;2024-02-23T13:23:38;9.57;;;2.13;;
75005;SDS011;63553;51.814;4.600;2024-02-23T13:26:04;6.22;;;1.60;;
75005;SDS011;63553;51.814;4.600;2024-02-23T13:28:29;3.00;;;1.40;;
75005;SDS011;63553;51.814;4.600;2024-02-23T13:30:55;5.68;;;1.45;;
75005;SDS011;63553;51.814;4.600;2024-02-23T13:33:20;3.43;;;1.30;;
75005;SDS011;63553;51.814;4.600;2024-02-23T13:35:47;7.20;;;1.25;;
75005;SDS011;63553;51.814;4.600;2024-02-23T13:38:12;4.07;;;1.25;;
75005;SDS011;63553;51.814;4.600;2024-02-23T13:40:38;3.15;;;1.20;;
75005;SDS011;63553;51.814;4.600;2024-02-23T13:43:03;2.85;;;1.30;;
75005;SDS011;63553;51.814;4.600;2024-02-23T13:45:29;3.72;;;1.10;;
75005;SDS011;63553;51.814;4.600;2024-02-23T13:48:01;3.70;;;1.40;;
75005;SDS011;63553;51.814;4.600;2024-02-23T13:50:27;3.72;;;1.10;;
75005;SDS011;63553;51.814;4.600;2024-02-23T13:52:53;3.25;;;1.00;;
75005;SDS011;63553;51.814;4.600;2024-02-23T13:55:19;2.05;;;0.70;;
75005;SDS011;63553;51.814;4.600;2024-02-23T13:57:50;1.20;;;0.88;;
75005;SDS011;63553;51.814;4.600;2024-02-23T14:00:16;3.70;;;1.55;;
75005;SDS011;63553;51.814;4.600;2024-02-23T14:02:42;2.00;;;0.70;;
75005;SDS011;63553;51.814;4.600;2024-02-23T14:05:08;4.00;;;1.02;;
75005;SDS011;63553;51.814;4.600;2024-02-23T14:07:33;2.05;;;1.15;;
75005;SDS011;63553;51.814;4.600;2024-02-23T14:09:59;1.38;;;0.90;;
75005;SDS011;63553;51.814;4.600;2024-02-23T14:12:27;3.83;;;1.13;;
75005;SDS011;63553;51.814;4.600;2024-02-23T14:14:52;3.65;;;1.10;;
75005;SDS011;63553;51.814;4.600;2024-02-23T14:17:18;6.67;;;1.57;;
75005;SDS011;63553;51.814;4.600;2024-02-23T14:19:43;2.53;;;1.20;;
75005;SDS011;63553;51.814;4.600;2024-02-23T14:22:08;4.83;;;1.50;;
75005;SDS011;63553;51.814;4.600;2024-02-23T14:24:34;3.83;;;0.98;;
75005;SDS011;63553;51.814;4.600;2024-02-23T14:26:59;3.35;;;0.80;;
75005;SDS011;63553;51.814;4.600;2024-02-23T14:29:25;2.20;;;1.02;;
75005;SDS011;63553;51.814;4.600;2024-02-23T14:31:50;1.80;;;1.30;;
75005;SDS011;63553;51.814;4.600;2024-02-23T14:34:15;2.42;;;0.98;;
75005;SDS011;63553;51.814;4.600;2024-02-23T14:36:41;2.97;;;1.50;;
75005;SDS011;63553;51.814;4.600;2024-02-23T14:39:06;11.63;;;2.73;;
75005;SDS011;63553;51.814;4.600;2024-02-23T14:41:33;8.02;;;1.70;;
75005;SDS011;63553;51.814;4.600;2024-02-23T14:43:58;7.53;;;1.83;;
75005;SDS011;63553;51.814;4.600;2024-02-23T14:46:23;2.73;;;1.20;;